CheckWX is a tool to help pilots better visualize weather data.  It is not intended as a substitute for an official pre-flight weather briefing.

15:05:29 UTC

KHFF METAR
Mackall AAF Airport
Camp Mackall, North Carolina, USA
Current

9 mins ago

KHFF 211456Z AUTO 27009KT 10SM CLR 32/23 A3003 RMK AO2 SLP181 T03180227 50004 $
Observed
Jul-21 @ 14:56 UTC
Wind
  • 270° at 9 KTS
Visibility
10 SM
Flight Rules
VFR
Cloud Levels
  • Clear skies
Temperature
32°C / 90°F
Dewpoint
23°C / 73°F
Heat Index
37°C / 99°F
Humidity
59%
Altimeter
30.03" Hg
Pressure
1016.92 hPa
Previous

1 hour ago

KHFF 211356Z AUTO 26009KT 10SM CLR 30/23 A3004 RMK AO2 SLP184 T03020228 $
Observed
Jul-21 @ 13:56 UTC
Wind
  • 260° at 9 KTS
Visibility
10 SM
Flight Rules
VFR
Cloud Levels
  • Clear skies
Temperature
30°C / 86°F
Dewpoint
23°C / 73°F
Heat Index
34°C / 93°F
Humidity
66%
Altimeter
30.04" Hg
Pressure
1017.32 hPa
Previous

1 hour ago

KHFF 211339Z AUTO 28012KT 10SM CLR 30/22 A3004 RMK AO2 SLP184 $
Observed
Jul-21 @ 13:39 UTC
Wind
  • 280° at 12 KTS
Visibility
10 SM
Flight Rules
VFR
Cloud Levels
  • Clear skies
Temperature
30°C / 86°F
Dewpoint
22°C / 72°F
Heat Index
33°C / 92°F
Humidity
62%
Altimeter
30.04" Hg
Pressure
1017.32 hPa